Latest Coastal Weather Observations for Port Hedland

IDW60701

Issued at 11:12 am WST Tuesday 25 June 2024 (issued every 10 minutes, with the page automatically refreshed every 10 minutes)

About coastal observations | Map of coastal stations | Coastal observations for WA | Marine services | Other Formats
Station Details ID: 004032 Name: PORT HEDLAND AIRPORT Lat: -20.37 Lon: 118.63 Height: 6.4 m
Data from the previous 72 hours. | See also: Recent months at Port Hedland
Date/Time
WST
Wind Sea
Height
m
Swell Vis
km
Cloud Weather Temp
°C
Press
MSL
hPa
Rain since
9am
mm
Dir  Spd
kts
Gust
kts
Height
m
Period
s
Dir
25/11:00am NNE 10 13 - - - - 10 - - 25.0 1015.7 0.0
25/10:30am ENE 10 13 - - - - 10 - - 24.3 1016.0 0.0
25/10:00am ENE 12 15 - - - - 10 - - 23.4 1016.2 0.0
25/09:30am ENE 14 17 - - - - 10 - - 22.2 1016.3 0.0
25/09:00am E 13 17 - - - - 10 - - 22.3 1016.2 0.0
25/08:30am E 11 15 - - - - 10 - - 20.9 1016.0 0.0
25/08:00am E 9 11 - - - - 10 - - 18.7 1015.7 0.0
25/07:30am ESE 6 7 - - - - 10 - - 17.1 1015.6 0.0
25/07:00am ESE 5 5 - - - - 10 - - 15.5 1015.4 0.0
25/06:30am ESE 7 8 - - - - 10 - - 16.0 1015.0 0.0
25/06:00am ESE 8 9 - - - - 10 - - 16.5 1014.7 0.0
25/05:30am ESE 8 10 - - - - 10 - - 16.7 1014.6 0.0
25/05:00am SE 5 8 - - - - 10 - - 17.3 1014.5 0.0
25/04:30am SE 7 9 - - - - 10 - - 18.0 1014.5 0.0
25/04:00am SE 7 9 - - - - 10 - - 18.2 1014.5 0.0
25/03:30am SE 8 11 - - - - 10 - - 18.3 1014.5 0.0
25/03:00am SE 8 9 - - - - 10 - - 17.4 1014.4 0.0
25/02:30am SE 6 7 - - - - 10 - - 15.5 1014.7 0.0
25/02:00am SE 6 7 - - - - 10 - - 15.5 1014.9 0.0
25/01:30am SSE 4 5 - - - - 10 - - 15.6 1015.2 0.0
25/01:00am SSE 7 8 - - - - 10 - - 15.6 1015.3 0.0
25/12:30am SSE 6 6 - - - - 10 - - 16.3 1015.2 0.0
25/12:00am SE 4 5 - - - - 10 - - 17.0 1015.4 0.0
 
Date/Time
WST
Wind Sea
Height
m
Swell Vis
km
Cloud Weather Temp
°C
Press
MSL
hPa
Rain since
9am
mm
Dir  Spd
kts
Gust
kts
Height
m
Period
s
Dir
24/11:30pm SSE 5 6 - - - - 10 - - 17.1 1015.5 0.0
24/11:00pm SSE 6 6 - - - - 10 - - 17.7 1015.7 0.0
24/10:30pm S 5 5 - - - - 10 - - 18.3 1015.8 0.0
24/10:00pm SSE 4 5 - - - - 10 - - 18.7 1016.0 0.0
24/09:30pm CALM 0 0 - - - - 10 - - 19.3 1016.1 0.0
24/09:00pm CALM 0 0 - - - - 10 - - 19.9 1016.2 0.0
24/08:30pm CALM 0 0 - - - - 10 - - 20.8 1016.0 0.0
24/08:00pm CALM 0 0 - - - - 10 - - 21.2 1016.0 0.0
24/07:30pm CALM 0 4 - - - - 10 - - 21.7 1015.9 0.0
24/07:00pm N 2 4 - - - - 10 - - 21.7 1015.6 0.0
24/06:30pm N 5 6 - - - - 10 - - 22.1 1015.3 0.0
24/06:00pm N 7 8 - - - - 10 - - 22.6 1015.2 0.0
24/05:30pm N 7 9 - - - - 10 - - 24.0 1015.0 0.0
24/05:00pm N 10 12 - - - - 10 - - 25.1 1014.9 0.0
24/04:30pm N 11 15 - - - - 10 - - 25.8 1014.8 0.0
24/04:00pm NNE 13 15 - - - - 10 - - 26.1 1014.8 0.0
24/03:30pm N 13 16 - - - - 10 - - 26.4 1014.9 0.0
24/03:00pm NNE 14 16 - - - - 10 - - 27.0 1014.9 0.0
24/02:30pm N 13 16 - - - - 10 - - 27.8 1015.0 0.0
24/02:00pm NNE 14 18 - - - - 10 - - 28.9 1015.2 0.0
24/01:30pm NNE 13 16 - - - - 10 - - 28.2 1015.5 0.0
24/01:00pm ENE 11 16 - - - - 10 - - 28.7 1015.9 0.0
24/12:30pm ENE 12 18 - - - - 10 - - 28.7 1016.4 0.0
24/12:00pm ENE 13 18 - - - - 10 - - 28.1 1017.2 0.0
24/11:30am E 15 22 - - - - 10 - - 28.2 1017.4 0.0
24/11:00am ESE 17 24 - - - - 10 - - 26.7 1017.8 0.0
24/10:30am ESE 17 23 - - - - 10 - - 26.3 1018.2 0.0
24/10:00am ESE 17 23 - - - - 10 - - 25.6 1018.5 0.0
24/09:30am ESE 18 24 - - - - 10 - - 24.5 1018.7 0.0
24/09:00am E 19 27 - - - - 10 - - 24.0 1018.6 0.0
24/08:30am ESE 14 21 - - - - 10 - - 23.0 1018.5 0.0
24/08:00am ESE 8 13 - - - - 10 - - 19.9 1018.4 0.0
24/07:30am SSE 5 6 - - - - 10 - - 17.0 1018.3 0.0
24/07:00am S 5 6 - - - - 10 - - 15.3 1017.8 0.0
24/06:30am S 4 5 - - - - 10 - - 14.8 1017.4 0.0
24/06:00am S 4 5 - - - - 10 - - 15.7 1016.9 0.0
24/05:30am S 5 6 - - - - 10 - - 16.2 1016.7 0.0
24/05:00am S 4 5 - - - - 10 - - 15.3 1016.6 0.0
24/04:30am SSE 6 7 - - - - 10 - - 16.9 1016.3 0.0
24/04:00am SE 4 5 - - - - 10 - - 17.0 1016.2 0.0
24/03:30am SE 5 6 - - - - 10 - - 16.8 1016.3 0.0
24/03:00am SE 6 8 - - - - 10 - - 18.9 1016.4 0.0
24/02:30am SE 8 11 - - - - 10 - - 18.5 1016.8 0.0
24/02:00am SSE 5 6 - - - - 10 - - 16.9 1017.0 0.0
24/01:30am S 7 8 - - - - 10 - - 18.4 1017.3 0.0
24/01:00am S 8 10 - - - - 10 - - 18.8 1017.5 0.0
24/12:30am S 7 8 - - - - 10 - - 18.5 1017.6 0.0
24/12:00am S 8 10 - - - - 10 - - 19.1 1017.8 0.0
 
Date/Time
WST
Wind Sea
Height
m
Swell Vis
km
Cloud Weather Temp
°C
Press
MSL
hPa
Rain since
9am
mm
Dir  Spd
kts
Gust
kts
Height
m
Period
s
Dir
23/11:30pm S 7 9 - - - - 10 - - 19.0 1017.9 0.0
23/11:00pm S 8 11 - - - - 10 - - 19.1 1018.0 0.0
23/10:30pm S 5 7 - - - - 10 - - 19.2 1017.7 0.0
23/10:00pm SSW 5 6 - - - - 10 - - 19.3 1017.6 0.0
23/09:30pm S 5 6 - - - - 10 - - 19.5 1017.8 0.0
23/09:00pm SSW 3 4 - - - - 10 - - 19.5 1017.5 0.0
23/08:30pm SW 3 4 - - - - 10 - - 20.2 1017.6 0.0
23/08:00pm SW 4 5 - - - - 10 - - 20.4 1017.5 0.0
23/07:30pm NW 3 4 - - - - 10 - - 20.4 1017.2 0.0
23/07:00pm NNW 3 4 - - - - 10 - - 20.8 1016.9 0.0
23/06:30pm NNW 4 5 - - - - 10 - - 21.4 1016.7 0.0
23/06:00pm N 5 6 - - - - 10 - - 22.3 1016.5 0.0
23/05:30pm N 7 8 - - - - 10 - - 23.7 1016.3 0.0
23/05:00pm N 9 13 - - - - 10 - - 25.0 1016.1 0.0
23/04:30pm N 10 13 - - - - 10 - - 25.7 1016.1 0.0
23/04:00pm N 12 15 - - - - 10 - - 26.3 1016.2 0.0
23/03:30pm N 13 17 - - - - 10 - - 26.6 1016.3 0.0
23/03:00pm NNE 16 20 - - - - 10 - - 26.5 1016.2 0.0
23/02:30pm NNE 16 19 - - - - 10 - - 27.3 1016.4 0.0
23/02:00pm NNE 15 18 - - - - 10 - - 28.0 1016.6 0.0
23/01:30pm NNE 14 17 - - - - 10 - - 27.8 1016.9 0.0
23/01:00pm NNE 14 16 - - - - 10 - - 28.6 1017.4 0.0
23/12:30pm NNE 14 17 - - - - 10 - - 29.3 1017.9 0.0
23/12:00pm NE 14 16 - - - - 10 - - 29.0 1018.5 0.0
23/11:30am NE 14 18 - - - - 10 - - 28.8 1018.9 0.0
23/11:00am ENE 14 18 - - - - 10 - - 28.5 1019.1 0.0
23/10:30am ENE 15 19 - - - - 10 - - 28.3 1019.5 0.0
23/10:00am ENE 16 19 - - - - 10 - - 27.4 1019.6 0.0
23/09:30am E 15 23 - - - - 10 - - 27.0 1019.9 0.0
23/09:00am E 16 21 - - - - 10 - - 25.7 1019.9 0.0
23/08:30am ESE 12 16 - - - - 10 - - 24.5 1019.8 0.0
23/08:00am SE 8 11 - - - - 10 - - 21.7 1019.6 0.0
23/07:30am SE 7 9 - - - - 10 - - 19.6 1019.0 0.0
23/07:00am SE 7 9 - - - - 10 - - 18.5 1018.7 0.0
23/06:30am SE 8 10 - - - - 10 - - 17.8 1018.4 0.0
23/06:00am SE 6 8 - - - - 10 - - 17.0 1018.3 0.0
23/05:30am SE 5 7 - - - - 10 - - 16.4 1018.1 0.0
23/05:00am ESE 5 6 - - - - 10 - - 16.2 1018.0 0.0
23/04:30am SSE 6 7 - - - - 10 - - 17.2 1017.8 0.0
23/04:00am SSE 2 5 - - - - 10 - - 17.2 1017.6 0.0
23/03:30am SE 1 3 - - - - 10 - - 17.0 1017.7 0.0
23/03:00am SSE 5 6 - - - - 10 - - 18.6 1017.6 0.0
23/02:30am SSE 7 10 - - - - 10 - - 17.5 1018.0 0.0
23/02:00am S 8 10 - - - - 10 - - 19.0 1017.9 0.0
23/01:30am S 8 9 - - - - 10 - - 18.6 1018.1 0.0
23/01:00am SSE 8 10 - - - - 10 - - 18.3 1018.4 0.0
23/12:30am S 8 12 - - - - 10 - - 18.5 1018.7 0.0
23/12:00am S 5 6 - - - - 10 - - 18.6 1018.6 0.0
 
Date/Time
WST
Wind Sea
Height
m
Swell Vis
km
Cloud Weather Temp
°C
Press
MSL
hPa
Rain since
9am
mm
Dir  Spd
kts
Gust
kts
Height
m
Period
s
Dir
22/11:30pm SSE 6 6 - - - - 10 - - 18.9 1018.6 0.0
22/11:00pm S 5 5 - - - - 10 - - 19.0 1018.5 0.0
22/10:30pm SSE 5 7 - - - - 10 - - 18.7 1018.5 0.0
22/10:00pm SE 5 7 - - - - 10 - - 19.1 1018.4 0.0
22/09:30pm SE 3 3 - - - - 10 - - 19.5 1018.0 0.0
22/09:00pm SE 3 4 - - - - 10 - - 20.2 1018.2 0.0
22/08:30pm CALM 0 0 - - - - 10 - - 20.7 1018.2 0.0
22/08:00pm CALM 0 0 - - - - 10 - - 20.8 1018.0 0.0
22/07:30pm CALM 0 0 - - - - 10 - - 21.3 1017.9 0.0
22/07:00pm N 5 6 - - - - 10 - - 22.5 1017.5 0.0
22/06:30pm NNE 7 9 - - - - 10 - - 23.0 1017.3 0.0
22/06:00pm N 8 11 - - - - 10 - - 23.5 1017.1 0.0
22/05:30pm N 9 11 - - - - 10 - - 24.2 1017.0 0.0
22/05:00pm NNE 11 13 - - - - 10 - - 25.3 1016.9 0.0
22/04:30pm NNE 12 15 - - - - 10 - - 26.4 1016.7 0.0
22/04:00pm NNE 13 16 - - - - 10 - - 27.4 1016.5 0.0
22/03:30pm NNE 13 16 - - - - 10 - - 27.7 1016.5 0.0
22/03:00pm NNE 13 15 - - - - 10 - - 27.6 1016.6 0.0
22/02:30pm NNE 13 16 - - - - 10 - - 28.6 1016.7 0.0
22/02:00pm NNE 13 15 - - - - 10 - - 28.5 1017.1 0.0
22/01:30pm NNE 13 15 - - - - 10 - - 29.1 1017.4 0.0
22/01:00pm NNE 13 15 - - - - 10 - - 29.4 1017.8 0.0
22/12:30pm ENE 12 16 - - - - 10 - - 29.6 1018.3 0.0
22/12:00pm NE 14 19 - - - - 10 - - 29.2 1018.8 0.0
22/11:30am ENE 13 17 - - - - 10 - - 28.7 1019.2 0.0

Other formats

Comma delimited format used in spreadsheet applications
http://www.bom.gov.au/fwo/IDW60701/IDW60701.94312.axf

JavaScript Object Notation format (JSON) in row-major order
http://www.bom.gov.au/fwo/IDW60701/IDW60701.94312.json

Data quality

Most of these data are generated automatically and are frequently updated. Quality checks on data are not normally performed. It is possible for incorrect values to appear. Refer to information at About Latest Weather Observations and please check the disclaimer before using these data.